GMFF/FEZ METAR and TAF weather

Enter ICAO airport designator
Station Type Date Time Source
GMFF METAR 2020/11/27 15:00 UTC NOAA

GMFF 271500Z 29008KT 9999 FEW013 BKN026 FEW040CB 12/06 Q1007 TEMPO 26016G26KT 3000 SHRA


Station Type Date Time Source
GMFF Decoded METAR 2020/11/27 15:00 UTC NOAA

Fes-Sais, Morocco (GMFF) 33-56N 004-59W 579M
Nov 27, 2020 - 10:00 AM EST / 2020.11.27 1500 UTC
Wind: from the WNW (290 degrees) at 9 MPH (8 KT):0
Visibility: greater than 7 mile(s):0
Sky conditions: mostly cloudy
Weather: Cumulonimbus clouds observed
Temperature: 53 F (12 C)
Dew Point: 42 F (6 C)
Relative Humidity: 66%
Pressure (altimeter): 29.74 in. Hg (1007 hPa)
ob: GMFF 271500Z 29008KT 9999 FEW013 BKN026 FEW040CB 12/06 Q1007 TEMPO 26016G26KT 3000 SHRA
cycle: 15

Station Type Date Time Source
GMFF TAF 2020/11/27 12:18 UTC NOAA

TAF TAF GMFF 271100Z 2712/2818 28014KT 9999 BKN026 FEW040CB PROB40
TEMPO 2712/2719 28018G30KT 3000 TSRA
BECMG 2719/2721 RA BKN026 BKN100
BECMG 2804/2806 NSW
TEMPO 2807/2816 24020G30KT

Example: see airport list